sensor_id;sensor_type;location;lat;lon;timestamp;pressure;altitude;pressure_sealevel;temperature;humidity
48778;BME280;34578;0.000;0.000;2022-11-18T00:00:13;94833.53;;;17.80;66.60
48778;BME280;34578;0.000;0.000;2022-11-18T00:05:13;94839.44;;;17.80;66.68
48778;BME280;34578;0.000;0.000;2022-11-18T00:10:14;94837.81;;;17.78;66.71
48778;BME280;34578;0.000;0.000;2022-11-18T00:15:14;94863.88;;;17.80;66.65
48778;BME280;34578;0.000;0.000;2022-11-18T00:20:15;94870.56;;;17.84;66.51
48778;BME280;34578;0.000;0.000;2022-11-18T00:25:15;94877.25;;;17.85;66.66
48778;BME280;34578;0.000;0.000;2022-11-18T00:30:16;94873.06;;;17.84;66.47
48778;BME280;34578;0.000;0.000;2022-11-18T00:35:16;94872.19;;;17.85;66.60
48778;BME280;34578;0.000;0.000;2022-11-18T00:40:17;94872.34;;;17.79;66.42
48778;BME280;34578;0.000;0.000;2022-11-18T00:45:18;94885.72;;;17.84;66.19
48778;BME280;34578;0.000;0.000;2022-11-18T00:50:19;94890.78;;;17.84;66.58
48778;BME280;34578;0.000;0.000;2022-11-18T00:55:19;94881.56;;;17.81;66.56
48778;BME280;34578;0.000;0.000;2022-11-18T01:00:20;94895.06;;;17.82;66.65
48778;BME280;34578;0.000;0.000;2022-11-18T01:05:20;94906.84;;;17.83;66.48
48778;BME280;34578;0.000;0.000;2022-11-18T01:10:21;94915.25;;;17.83;66.86
48778;BME280;34578;0.000;0.000;2022-11-18T01:15:21;94922.03;;;17.83;66.44
48778;BME280;34578;0.000;0.000;2022-11-18T01:20:21;94933.03;;;17.82;66.64
48778;BME280;34578;0.000;0.000;2022-11-18T01:25:22;94950.75;;;17.82;66.73
48778;BME280;34578;0.000;0.000;2022-11-18T01:30:22;94943.16;;;17.82;66.72
48778;BME280;34578;0.000;0.000;2022-11-18T01:35:22;94960.81;;;17.85;66.92
48778;BME280;34578;0.000;0.000;2022-11-18T01:40:25;94974.28;;;17.85;66.53
48778;BME280;34578;0.000;0.000;2022-11-18T01:45:34;94973.44;;;17.85;66.51
48778;BME280;34578;0.000;0.000;2022-11-18T01:50:38;94958.25;;;17.85;66.66
48778;BME280;34578;0.000;0.000;2022-11-18T01:55:43;94970.13;;;17.83;66.60
48778;BME280;34578;0.000;0.000;2022-11-18T02:00:45;94966.09;;;17.76;66.62
48778;BME280;34578;0.000;0.000;2022-11-18T02:05:47;94987.13;;;17.78;67.02
48778;BME280;34578;0.000;0.000;2022-11-18T02:10:48;94983.81;;;17.76;66.68
48778;BME280;34578;0.000;0.000;2022-11-18T02:16:05;95006.56;;;17.77;67.01
48778;BME280;34578;0.000;0.000;2022-11-18T02:27:15;95034.44;;;17.76;66.83
48778;BME280;34578;0.000;0.000;2022-11-18T02:32:41;95041.16;;;17.77;67.00
48778;BME280;34578;0.000;0.000;2022-11-18T02:38:01;95052.94;;;17.78;66.88
48778;BME280;34578;0.000;0.000;2022-11-18T02:43:08;95048.81;;;17.74;66.94
48778;BME280;34578;0.000;0.000;2022-11-18T02:48:10;95055.38;;;17.81;66.86
48778;BME280;34578;0.000;0.000;2022-11-18T02:53:14;95049.38;;;17.85;66.65
48778;BME280;34578;0.000;0.000;2022-11-18T02:58:19;95043.47;;;17.84;66.74
48778;BME280;34578;0.000;0.000;2022-11-18T03:03:29;95048.53;;;17.84;66.40
48778;BME280;34578;0.000;0.000;2022-11-18T03:08:36;95050.31;;;17.81;66.83
48778;BME280;34578;0.000;0.000;2022-11-18T03:19:27;95078.31;;;17.75;66.91
48778;BME280;34578;0.000;0.000;2022-11-18T03:24:32;95074.25;;;17.69;66.67
48778;BME280;34578;0.000;0.000;2022-11-18T03:29:38;95085.03;;;17.77;66.90
48778;BME280;34578;0.000;0.000;2022-11-18T03:34:44;95090.09;;;17.76;66.69
48778;BME280;34578;0.000;0.000;2022-11-18T03:39:52;95094.31;;;17.75;66.76
48778;BME280;34578;0.000;0.000;2022-11-18T03:45:00;95090.19;;;17.73;66.75
48778;BME280;34578;0.000;0.000;2022-11-18T03:50:16;95094.28;;;17.77;66.66
48778;BME280;34578;0.000;0.000;2022-11-18T03:55:23;95101.91;;;17.77;66.78
48778;BME280;34578;0.000;0.000;2022-11-18T04:00:29;95110.22;;;17.82;66.80
48778;BME280;34578;0.000;0.000;2022-11-18T04:05:36;95108.47;;;17.85;66.26
48778;BME280;34578;0.000;0.000;2022-11-18T04:11:19;95115.22;;;17.85;66.35
48778;BME280;34578;0.000;0.000;2022-11-18T04:16:43;95114.44;;;17.81;66.39
48778;BME280;34578;0.000;0.000;2022-11-18T04:21:45;95120.41;;;17.79;66.70
48778;BME280;34578;0.000;0.000;2022-11-18T04:26:47;95124.66;;;17.77;66.77
48778;BME280;34578;0.000;0.000;2022-11-18T04:31:47;95127.13;;;17.80;67.02
48778;BME280;34578;0.000;0.000;2022-11-18T04:36:48;95131.28;;;17.82;66.26
48778;BME280;34578;0.000;0.000;2022-11-18T04:41:48;95143.84;;;17.87;66.05
48778;BME280;34578;0.000;0.000;2022-11-18T04:46:57;95138.78;;;17.87;66.12
48778;BME280;34578;0.000;0.000;2022-11-18T04:51:58;95131.19;;;17.87;66.17
48778;BME280;34578;0.000;0.000;2022-11-18T04:56:59;95137.91;;;17.88;66.17
48778;BME280;34578;0.000;0.000;2022-11-18T05:01:59;95146.31;;;17.90;65.98
48778;BME280;34578;0.000;0.000;2022-11-18T05:07:02;95152.19;;;17.92;66.00
48778;BME280;34578;0.000;0.000;2022-11-18T05:12:02;95151.31;;;17.93;66.34
48778;BME280;34578;0.000;0.000;2022-11-18T05:17:22;95170.72;;;17.92;66.19
48778;BME280;34578;0.000;0.000;2022-11-18T05:22:22;95176.63;;;17.93;66.21
48778;BME280;34578;0.000;0.000;2022-11-18T05:27:23;95191.78;;;17.94;65.87
48778;BME280;34578;0.000;0.000;2022-11-18T05:32:23;95199.41;;;17.93;66.11
48778;BME280;34578;0.000;0.000;2022-11-18T05:37:24;95207.78;;;17.96;65.70
48778;BME280;34578;0.000;0.000;2022-11-18T05:42:24;95221.31;;;17.94;65.87
48778;BME280;34578;0.000;0.000;2022-11-18T05:47:43;95221.53;;;17.85;65.29
48778;BME280;34578;0.000;0.000;2022-11-18T05:53:04;95226.78;;;17.76;63.88
48778;BME280;34578;0.000;0.000;2022-11-18T05:58:04;95233.59;;;17.74;64.01
48778;BME280;34578;0.000;0.000;2022-11-18T06:03:11;95242.63;;;17.85;64.24
48778;BME280;34578;0.000;0.000;2022-11-18T06:08:16;95250.13;;;17.90;64.17
48778;BME280;34578;0.000;0.000;2022-11-18T06:13:23;95251.78;;;17.91;64.15
48778;BME280;34578;0.000;0.000;2022-11-18T06:18:28;95260.25;;;17.90;64.37
48778;BME280;34578;0.000;0.000;2022-11-18T06:23:33;95253.50;;;17.89;64.55
48778;BME280;34578;0.000;0.000;2022-11-18T06:28:35;95267.06;;;17.86;64.48
48778;BME280;34578;0.000;0.000;2022-11-18T06:33:35;95277.09;;;17.91;64.66
48778;BME280;34578;0.000;0.000;2022-11-18T06:38:36;95284.97;;;17.77;62.63
48778;BME280;34578;0.000;0.000;2022-11-18T06:43:36;95294.06;;;17.86;63.70
48778;BME280;34578;0.000;0.000;2022-11-18T06:48:40;95296.59;;;17.86;64.52
48778;BME280;34578;0.000;0.000;2022-11-18T06:53:41;95300.16;;;17.77;62.43
48778;BME280;34578;0.000;0.000;2022-11-18T06:58:41;95307.78;;;17.76;63.80
48778;BME280;34578;0.000;0.000;2022-11-18T07:03:44;95306.97;;;17.74;63.07
48778;BME280;34578;0.000;0.000;2022-11-18T07:08:44;95317.03;;;17.77;64.06
48778;BME280;34578;0.000;0.000;2022-11-18T07:13:45;95323.75;;;17.79;64.06
48778;BME280;34578;0.000;0.000;2022-11-18T07:18:48;95330.53;;;17.77;64.44
48778;BME280;34578;0.000;0.000;2022-11-18T07:23:49;95335.63;;;17.74;64.40
48778;BME280;34578;0.000;0.000;2022-11-18T07:28:49;95335.53;;;17.80;64.39
48778;BME280;34578;0.000;0.000;2022-11-18T07:33:50;95348.94;;;17.85;64.31
48778;BME280;34578;0.000;0.000;2022-11-18T07:38:54;95359.13;;;17.82;64.69
48778;BME280;34578;0.000;0.000;2022-11-18T07:43:55;95374.19;;;17.88;63.97
48778;BME280;34578;0.000;0.000;2022-11-18T07:48:58;95363.19;;;17.91;64.09
48778;BME280;34578;0.000;0.000;2022-11-18T07:53:59;95374.13;;;17.91;63.81
48778;BME280;34578;0.000;0.000;2022-11-18T07:59:00;95385.09;;;17.92;64.21
48778;BME280;34578;0.000;0.000;2022-11-18T08:04:09;95391.03;;;17.91;64.46
48778;BME280;34578;0.000;0.000;2022-11-18T08:09:10;95392.72;;;17.89;64.45
48778;BME280;34578;0.000;0.000;2022-11-18T08:14:11;95386.09;;;17.83;64.70
48778;BME280;34578;0.000;0.000;2022-11-18T08:19:11;95404.63;;;17.85;64.89
48778;BME280;34578;0.000;0.000;2022-11-18T08:24:11;95408.00;;;17.86;64.69
48778;BME280;34578;0.000;0.000;2022-11-18T08:29:12;95418.88;;;17.91;64.40
48778;BME280;34578;0.000;0.000;2022-11-18T08:34:12;95422.22;;;17.93;64.38
48778;BME280;34578;0.000;0.000;2022-11-18T08:39:13;95426.56;;;17.86;65.98
48778;BME280;34578;0.000;0.000;2022-11-18T08:44:15;95422.28;;;17.90;64.08
48778;BME280;34578;0.000;0.000;2022-11-18T08:49:16;95440.00;;;17.90;65.01
48778;BME280;34578;0.000;0.000;2022-11-18T08:54:16;95441.75;;;17.86;65.40
48778;BME280;34578;0.000;0.000;2022-11-18T08:59:16;95451.81;;;17.88;65.00
48778;BME280;34578;0.000;0.000;2022-11-18T09:04:17;95450.16;;;17.88;64.92
48778;BME280;34578;0.000;0.000;2022-11-18T09:09:18;95445.94;;;17.87;65.28
48778;BME280;34578;0.000;0.000;2022-11-18T09:14:18;95446.75;;;17.89;65.28
48778;BME280;34578;0.000;0.000;2022-11-18T09:19:19;95451.03;;;17.86;65.36
48778;BME280;34578;0.000;0.000;2022-11-18T09:24:19;95462.81;;;17.88;65.33
48778;BME280;34578;0.000;0.000;2022-11-18T09:29:19;95461.06;;;17.92;65.35
48778;BME280;34578;0.000;0.000;2022-11-18T09:34:24;95472.09;;;17.88;65.24
48778;BME280;34578;0.000;0.000;2022-11-18T09:39:24;95471.22;;;17.89;65.21
48778;BME280;34578;0.000;0.000;2022-11-18T09:49:43;95499.84;;;17.94;65.06
48778;BME280;34578;0.000;0.000;2022-11-18T09:54:44;95506.63;;;17.92;65.05
48778;BME280;34578;0.000;0.000;2022-11-18T09:59:45;95518.66;;;17.79;62.37
48778;BME280;34578;0.000;0.000;2022-11-18T10:04:45;95523.66;;;17.84;62.65
48778;BME280;34578;0.000;0.000;2022-11-18T10:09:47;95512.66;;;17.83;62.44
48778;BME280;34578;0.000;0.000;2022-11-18T10:20:18;95530.44;;;17.82;63.33
48778;BME280;34578;0.000;0.000;2022-11-18T10:25:20;95534.56;;;17.86;63.05
48778;BME280;34578;0.000;0.000;2022-11-18T10:30:24;95525.31;;;17.85;62.74
48778;BME280;34578;0.000;0.000;2022-11-18T10:35:36;95528.72;;;17.84;63.23
48778;BME280;34578;0.000;0.000;2022-11-18T10:40:43;95525.38;;;17.82;63.01
48778;BME280;34578;0.000;0.000;2022-11-18T10:45:44;95537.13;;;17.84;63.13
48778;BME280;34578;0.000;0.000;2022-11-18T10:50:49;95537.09;;;17.86;62.82
48778;BME280;34578;0.000;0.000;2022-11-18T10:56:01;95544.69;;;17.86;63.33
48778;BME280;34578;0.000;0.000;2022-11-18T11:01:21;95542.09;;;17.89;62.92
48778;BME280;34578;0.000;0.000;2022-11-18T11:11:31;95537.03;;;17.89;62.64
48778;BME280;34578;0.000;0.000;2022-11-18T11:16:40;95531.09;;;17.93;62.76
48778;BME280;34578;0.000;0.000;2022-11-18T11:21:44;95540.34;;;17.94;62.88
48778;BME280;34578;0.000;0.000;2022-11-18T11:26:53;95531.03;;;17.96;62.77
48778;BME280;34578;0.000;0.000;2022-11-18T11:32:14;95541.06;;;18.00;62.64
48778;BME280;34578;0.000;0.000;2022-11-18T11:37:57;95539.44;;;17.98;63.25
48778;BME280;34578;0.000;0.000;2022-11-18T11:43:07;95538.59;;;17.99;63.69
48778;BME280;34578;0.000;0.000;2022-11-18T11:49:32;95540.25;;;18.00;62.78
48778;BME280;34578;0.000;0.000;2022-11-18T11:54:23;95546.97;;;18.01;63.21
48778;BME280;34578;0.000;0.000;2022-11-18T12:05:06;95546.97;;;18.01;63.44
48778;BME280;34578;0.000;0.000;2022-11-18T12:15:19;95552.91;;;18.00;62.93
48778;BME280;34578;0.000;0.000;2022-11-18T12:20:41;95562.97;;;18.04;63.39
48778;BME280;34578;0.000;0.000;2022-11-18T12:30:45;95558.00;;;17.98;63.61
48778;BME280;34578;0.000;0.000;2022-11-18T12:35:47;95552.06;;;18.01;63.50
48778;BME280;34578;0.000;0.000;2022-11-18T12:40:49;95562.97;;;18.03;63.34
48778;BME280;34578;0.000;0.000;2022-11-18T12:45:54;95563.03;;;18.00;63.64
48778;BME280;34578;0.000;0.000;2022-11-18T12:50:57;95574.03;;;17.99;63.78
48778;BME280;34578;0.000;0.000;2022-11-18T12:55:58;95575.72;;;17.98;63.18
48778;BME280;34578;0.000;0.000;2022-11-18T13:01:07;95567.31;;;17.98;63.50
48778;BME280;34578;0.000;0.000;2022-11-18T13:06:27;95568.91;;;18.02;64.28
48778;BME280;34578;0.000;0.000;2022-11-18T13:11:30;95565.56;;;18.00;63.60
48778;BME280;34578;0.000;0.000;2022-11-18T13:16:43;95571.47;;;18.00;63.53
48778;BME280;34578;0.000;0.000;2022-11-18T13:22:02;95570.66;;;17.97;63.94
48778;BME280;34578;0.000;0.000;2022-11-18T13:32:45;95565.59;;;17.97;63.63
48778;BME280;34578;0.000;0.000;2022-11-18T13:42:54;95571.38;;;18.06;66.25
48778;BME280;34578;0.000;0.000;2022-11-18T13:47:59;95565.50;;;18.03;63.58
48778;BME280;34578;0.000;0.000;2022-11-18T13:58:19;95570.66;;;17.97;64.23
48778;BME280;34578;0.000;0.000;2022-11-18T14:03:28;95567.31;;;17.98;63.45
48778;BME280;34578;0.000;0.000;2022-11-18T14:08:33;95574.03;;;17.99;64.08
48778;BME280;34578;0.000;0.000;2022-11-18T14:13:49;95582.44;;;18.01;63.47
48778;BME280;34578;0.000;0.000;2022-11-18T14:18:51;95581.59;;;18.00;63.74
48778;BME280;34578;0.000;0.000;2022-11-18T14:23:51;95587.50;;;18.01;64.73
48778;BME280;34578;0.000;0.000;2022-11-18T14:28:54;95580.72;;;18.03;64.03
48778;BME280;34578;0.000;0.000;2022-11-18T14:34:26;95593.28;;;18.07;64.02
48778;BME280;34578;0.000;0.000;2022-11-18T14:39:29;95600.88;;;18.09;63.98
48778;BME280;34578;0.000;0.000;2022-11-18T14:44:29;95606.88;;;18.03;64.45
48778;BME280;34578;0.000;0.000;2022-11-18T14:49:30;95606.13;;;17.97;67.03
48778;BME280;34578;0.000;0.000;2022-11-18T14:54:31;95602.63;;;18.04;66.63
48778;BME280;34578;0.000;0.000;2022-11-18T14:59:32;95611.09;;;18.03;65.53
48778;BME280;34578;0.000;0.000;2022-11-18T15:04:32;95604.38;;;18.02;65.07
48778;BME280;34578;0.000;0.000;2022-11-18T15:09:33;95614.66;;;17.91;64.56
48778;BME280;34578;0.000;0.000;2022-11-18T15:14:33;95623.84;;;17.98;65.27
48778;BME280;34578;0.000;0.000;2022-11-18T15:19:34;95622.97;;;18.01;65.04
48778;BME280;34578;0.000;0.000;2022-11-18T15:24:36;95630.56;;;17.99;65.51
48778;BME280;34578;0.000;0.000;2022-11-18T15:29:36;95625.56;;;17.95;65.22
48778;BME280;34578;0.000;0.000;2022-11-18T15:34:37;95633.94;;;18.00;65.09
48778;BME280;34578;0.000;0.000;2022-11-18T15:39:37;95638.22;;;17.98;65.41
48778;BME280;34578;0.000;0.000;2022-11-18T15:44:37;95631.44;;;17.97;65.06
48778;BME280;34578;0.000;0.000;2022-11-18T15:49:38;95639.03;;;17.98;64.49
48778;BME280;34578;0.000;0.000;2022-11-18T15:54:42;95641.53;;;18.00;64.73
48778;BME280;34578;0.000;0.000;2022-11-18T15:59:43;95648.28;;;18.01;65.20
48778;BME280;34578;0.000;0.000;2022-11-18T16:04:44;95648.22;;;18.04;65.94
48778;BME280;34578;0.000;0.000;2022-11-18T16:09:44;95662.63;;;18.02;64.47
48778;BME280;34578;0.000;0.000;2022-11-18T16:15:17;95656.69;;;18.03;64.39
48778;BME280;34578;0.000;0.000;2022-11-18T16:20:36;95668.53;;;18.01;65.07
48778;BME280;34578;0.000;0.000;2022-11-18T16:25:42;95663.53;;;17.98;64.79
48778;BME280;34578;0.000;0.000;2022-11-18T16:30:49;95663.56;;;17.95;64.58
48778;BME280;34578;0.000;0.000;2022-11-18T16:36:08;95668.59;;;17.96;65.07
48778;BME280;34578;0.000;0.000;2022-11-18T16:41:09;95673.66;;;17.98;64.59
48778;BME280;34578;0.000;0.000;2022-11-18T16:46:29;95677.88;;;17.97;65.29
48778;BME280;34578;0.000;0.000;2022-11-18T16:51:32;95683.69;;;18.04;64.62
48778;BME280;34578;0.000;0.000;2022-11-18T16:56:34;95683.66;;;18.07;64.09
48778;BME280;34578;0.000;0.000;2022-11-18T17:01:34;95681.16;;;18.04;64.01
48778;BME280;34578;0.000;0.000;2022-11-18T17:06:35;95680.34;;;18.02;64.29
48778;BME280;34578;0.000;0.000;2022-11-18T17:11:35;95685.47;;;17.99;64.27
48778;BME280;34578;0.000;0.000;2022-11-18T17:16:35;95687.19;;;17.95;63.95
48778;BME280;34578;0.000;0.000;2022-11-18T17:21:36;95688.13;;;17.88;63.09
48778;BME280;34578;0.000;0.000;2022-11-18T17:26:36;95690.59;;;17.93;63.87
48778;BME280;34578;0.000;0.000;2022-11-18T17:31:37;95698.19;;;17.93;64.07
48778;BME280;34578;0.000;0.000;2022-11-18T17:36:38;95704.94;;;17.94;64.04
48778;BME280;34578;0.000;0.000;2022-11-18T17:41:39;95711.66;;;17.95;63.89
48778;BME280;34578;0.000;0.000;2022-11-18T17:46:58;95707.47;;;17.94;64.23
48778;BME280;34578;0.000;0.000;2022-11-18T17:51:58;95709.00;;;18.04;63.89
48778;BME280;34578;0.000;0.000;2022-11-18T17:56:59;95709.00;;;18.04;63.58
48778;BME280;34578;0.000;0.000;2022-11-18T18:01:59;95714.13;;;17.99;63.73
48778;BME280;34578;0.000;0.000;2022-11-18T18:07:00;95721.78;;;17.98;63.55
48778;BME280;34578;0.000;0.000;2022-11-18T18:12:00;95727.66;;;17.97;63.98
48778;BME280;34578;0.000;0.000;2022-11-18T18:17:21;95734.44;;;17.98;63.95
48778;BME280;34578;0.000;0.000;2022-11-18T18:22:21;95731.09;;;17.94;63.94
48778;BME280;34578;0.000;0.000;2022-11-18T18:27:22;95740.38;;;17.95;63.68
48778;BME280;34578;0.000;0.000;2022-11-18T18:32:22;95756.44;;;17.93;63.66
48778;BME280;34578;0.000;0.000;2022-11-18T18:37:22;95753.09;;;17.91;63.36
48778;BME280;34578;0.000;0.000;2022-11-18T18:42:23;95747.16;;;17.92;63.69
48778;BME280;34578;0.000;0.000;2022-11-18T18:47:23;95749.72;;;17.89;62.58
48778;BME280;34578;0.000;0.000;2022-11-18T18:52:24;95751.31;;;17.96;63.60
48778;BME280;34578;0.000;0.000;2022-11-18T18:57:24;95759.69;;;18.02;63.21
48778;BME280;34578;0.000;0.000;2022-11-18T19:02:24;95760.59;;;17.98;64.31
48778;BME280;34578;0.000;0.000;2022-11-18T19:07:25;95744.59;;;17.93;64.39
48778;BME280;34578;0.000;0.000;2022-11-18T19:12:27;95753.00;;;17.97;64.57
48778;BME280;34578;0.000;0.000;2022-11-18T19:17:43;95742.19;;;17.86;65.70
48778;BME280;34578;0.000;0.000;2022-11-18T19:22:44;95751.38;;;17.91;65.33
48778;BME280;34578;0.000;0.000;2022-11-18T19:27:44;95764.84;;;17.95;64.98
48778;BME280;34578;0.000;0.000;2022-11-18T19:32:45;95759.78;;;17.95;65.18
48778;BME280;34578;0.000;0.000;2022-11-18T19:37:45;95752.19;;;17.95;65.19
48778;BME280;34578;0.000;0.000;2022-11-18T19:42:46;95754.69;;;17.98;65.30
48778;BME280;34578;0.000;0.000;2022-11-18T19:47:47;95754.63;;;18.02;65.13
48778;BME280;34578;0.000;0.000;2022-11-18T19:52:47;95764.69;;;18.07;65.28
48778;BME280;34578;0.000;0.000;2022-11-18T19:57:47;95769.75;;;18.07;65.57
48778;BME280;34578;0.000;0.000;2022-11-18T20:02:48;95769.75;;;18.07;65.24
48778;BME280;34578;0.000;0.000;2022-11-18T20:07:48;95763.03;;;18.03;66.05
48778;BME280;34578;0.000;0.000;2022-11-18T20:12:48;95760.56;;;18.00;66.34
48778;BME280;34578;0.000;0.000;2022-11-18T20:17:49;95754.56;;;18.05;65.87
48778;BME280;34578;0.000;0.000;2022-11-18T20:22:52;95758.91;;;17.99;66.15
48778;BME280;34578;0.000;0.000;2022-11-18T20:27:52;95762.25;;;17.99;65.82
48778;BME280;34578;0.000;0.000;2022-11-18T20:32:52;95763.13;;;17.97;65.86
48778;BME280;34578;0.000;0.000;2022-11-18T20:37:53;95779.06;;;18.05;65.01
48778;BME280;34578;0.000;0.000;2022-11-18T20:42:53;95763.91;;;18.00;65.41
48778;BME280;34578;0.000;0.000;2022-11-18T20:48:12;95781.50;;;18.11;65.17
48778;BME280;34578;0.000;0.000;2022-11-18T20:53:14;95785.78;;;18.09;65.49
48778;BME280;34578;0.000;0.000;2022-11-18T20:58:14;95791.78;;;18.02;65.50
48778;BME280;34578;0.000;0.000;2022-11-18T21:03:15;95791.84;;;17.96;65.78
48778;BME280;34578;0.000;0.000;2022-11-18T21:08:15;95784.28;;;17.93;65.98
48778;BME280;34578;0.000;0.000;2022-11-18T21:13:16;95788.50;;;17.94;65.80
48778;BME280;34578;0.000;0.000;2022-11-18T21:18:35;95783.44;;;17.92;65.55
48778;BME280;34578;0.000;0.000;2022-11-18T21:23:35;95788.50;;;17.94;65.16
48778;BME280;34578;0.000;0.000;2022-11-18T21:28:35;95796.03;;;18.00;64.96
48778;BME280;34578;0.000;0.000;2022-11-18T21:33:36;95797.69;;;18.01;64.68
48778;BME280;34578;0.000;0.000;2022-11-18T21:38:36;95795.97;;;18.03;64.51
48778;BME280;34578;0.000;0.000;2022-11-18T21:43:38;95799.31;;;18.05;65.40
48778;BME280;34578;0.000;0.000;2022-11-18T21:48:39;95807.75;;;18.07;64.82
48778;BME280;34578;0.000;0.000;2022-11-18T21:53:39;95802.69;;;18.05;64.69
48778;BME280;34578;0.000;0.000;2022-11-18T21:58:40;95804.38;;;18.05;64.66
48778;BME280;34578;0.000;0.000;2022-11-18T22:03:42;95802.72;;;18.04;64.47
48778;BME280;34578;0.000;0.000;2022-11-18T22:08:43;95800.22;;;18.01;65.11
48778;BME280;34578;0.000;0.000;2022-11-18T22:13:44;95804.50;;;17.96;65.62
48778;BME280;34578;0.000;0.000;2022-11-18T22:18:46;95801.22;;;17.91;65.26
48778;BME280;34578;0.000;0.000;2022-11-18T22:23:47;95805.41;;;17.90;65.36
48778;BME280;34578;0.000;0.000;2022-11-18T22:28:52;95801.22;;;17.88;65.68
48778;BME280;34578;0.000;0.000;2022-11-18T22:33:53;95791.16;;;17.85;65.45
48778;BME280;34578;0.000;0.000;2022-11-18T22:38:54;95780.09;;;17.89;65.45
48778;BME280;34578;0.000;0.000;2022-11-18T22:43:55;95782.56;;;17.93;64.45
48778;BME280;34578;0.000;0.000;2022-11-18T22:48:56;95798.56;;;18.00;64.14
48778;BME280;34578;0.000;0.000;2022-11-18T22:53:57;95800.28;;;17.95;65.77
48778;BME280;34578;0.000;0.000;2022-11-18T22:58:57;95805.44;;;17.89;64.73
48778;BME280;34578;0.000;0.000;2022-11-18T23:03:58;95812.22;;;17.87;65.11
48778;BME280;34578;0.000;0.000;2022-11-18T23:08:58;95810.53;;;17.86;64.88
48778;BME280;34578;0.000;0.000;2022-11-18T23:13:58;95813.94;;;17.85;64.80
48778;BME280;34578;0.000;0.000;2022-11-18T23:19:05;95819.00;;;17.85;64.95
48778;BME280;34578;0.000;0.000;2022-11-18T23:24:09;95818.19;;;17.80;65.10
48778;BME280;34578;0.000;0.000;2022-11-18T23:29:11;95823.22;;;17.84;64.71
48778;BME280;34578;0.000;0.000;2022-11-18T23:34:13;95813.97;;;17.82;64.89
48778;BME280;34578;0.000;0.000;2022-11-18T23:39:14;95790.56;;;17.65;64.51
48778;BME280;34578;0.000;0.000;2022-11-18T23:44:15;95829.88;;;17.91;64.28
48778;BME280;34578;0.000;0.000;2022-11-18T23:49:15;95812.09;;;17.96;64.44
48778;BME280;34578;0.000;0.000;2022-11-18T23:54:15;95811.28;;;17.95;63.99
48778;BME280;34578;0.000;0.000;2022-11-18T23:59:16;95804.66;;;17.84;64.20
